sensor_id;sensor_type;location;lat;lon;timestamp;temperature;humidity
16829;DHT22;8531;48.078;11.968;2024-01-30T00:01:55;0.90;99.90
16829;DHT22;8531;48.078;11.968;2024-01-30T00:04:21;0.90;99.90
16829;DHT22;8531;48.078;11.968;2024-01-30T00:06:47;0.80;99.90
16829;DHT22;8531;48.078;11.968;2024-01-30T00:09:13;0.90;99.90
16829;DHT22;8531;48.078;11.968;2024-01-30T00:11:39;0.90;99.90
16829;DHT22;8531;48.078;11.968;2024-01-30T00:14:05;0.80;99.90
16829;DHT22;8531;48.078;11.968;2024-01-30T00:16:30;0.80;99.90
16829;DHT22;8531;48.078;11.968;2024-01-30T00:18:56;0.70;99.90
16829;DHT22;8531;48.078;11.968;2024-01-30T00:21:23;0.70;99.90
16829;DHT22;8531;48.078;11.968;2024-01-30T00:23:48;0.70;99.90
16829;DHT22;8531;48.078;11.968;2024-01-30T00:26:14;0.70;99.90
16829;DHT22;8531;48.078;11.968;2024-01-30T00:28:42;0.70;99.90
16829;DHT22;8531;48.078;11.968;2024-01-30T00:31:08;0.70;99.90
16829;DHT22;8531;48.078;11.968;2024-01-30T00:33:38;0.60;99.90
16829;DHT22;8531;48.078;11.968;2024-01-30T00:36:05;0.60;99.90
16829;DHT22;8531;48.078;11.968;2024-01-30T00:38:31;0.60;99.90
16829;DHT22;8531;48.078;11.968;2024-01-30T00:40:56;0.60;99.90
16829;DHT22;8531;48.078;11.968;2024-01-30T00:43:22;0.60;99.90
16829;DHT22;8531;48.078;11.968;2024-01-30T00:45:50;0.60;99.90
16829;DHT22;8531;48.078;11.968;2024-01-30T00:48:17;0.50;99.90
16829;DHT22;8531;48.078;11.968;2024-01-30T00:50:43;0.50;99.90
16829;DHT22;8531;48.078;11.968;2024-01-30T00:53:08;0.50;99.90
16829;DHT22;8531;48.078;11.968;2024-01-30T00:55:35;0.50;99.90
16829;DHT22;8531;48.078;11.968;2024-01-30T00:58:01;0.40;99.90
16829;DHT22;8531;48.078;11.968;2024-01-30T01:00:26;0.40;99.90
16829;DHT22;8531;48.078;11.968;2024-01-30T01:02:56;0.40;99.90
16829;DHT22;8531;48.078;11.968;2024-01-30T01:05:22;0.40;99.90
16829;DHT22;8531;48.078;11.968;2024-01-30T01:07:47;0.40;99.90
16829;DHT22;8531;48.078;11.968;2024-01-30T01:10:14;0.40;99.90
16829;DHT22;8531;48.078;11.968;2024-01-30T01:12:41;0.40;99.90
16829;DHT22;8531;48.078;11.968;2024-01-30T01:15:07;0.40;99.90
16829;DHT22;8531;48.078;11.968;2024-01-30T01:17:38;0.40;99.90
16829;DHT22;8531;48.078;11.968;2024-01-30T01:20:05;0.40;99.90
16829;DHT22;8531;48.078;11.968;2024-01-30T01:22:31;0.40;99.90
16829;DHT22;8531;48.078;11.968;2024-01-30T01:25:00;0.40;99.90
16829;DHT22;8531;48.078;11.968;2024-01-30T01:27:26;0.40;99.90
16829;DHT22;8531;48.078;11.968;2024-01-30T01:29:53;0.40;99.90
16829;DHT22;8531;48.078;11.968;2024-01-30T01:32:19;0.30;99.90
16829;DHT22;8531;48.078;11.968;2024-01-30T01:34:45;0.30;99.90
16829;DHT22;8531;48.078;11.968;2024-01-30T01:37:10;0.30;99.90
16829;DHT22;8531;48.078;11.968;2024-01-30T01:39:36;0.40;99.90
16829;DHT22;8531;48.078;11.968;2024-01-30T01:42:02;0.30;99.90
16829;DHT22;8531;48.078;11.968;2024-01-30T01:44:28;0.40;99.90
16829;DHT22;8531;48.078;11.968;2024-01-30T01:46:54;0.40;99.90
16829;DHT22;8531;48.078;11.968;2024-01-30T01:49:25;0.30;99.90
16829;DHT22;8531;48.078;11.968;2024-01-30T01:51:53;0.30;99.90
16829;DHT22;8531;48.078;11.968;2024-01-30T01:54:19;0.30;99.90
16829;DHT22;8531;48.078;11.968;2024-01-30T01:56:45;0.20;99.90
16829;DHT22;8531;48.078;11.968;2024-01-30T01:59:11;0.20;99.90
16829;DHT22;8531;48.078;11.968;2024-01-30T02:01:37;0.10;99.90
16829;DHT22;8531;48.078;11.968;2024-01-30T02:04:04;0.10;99.90
16829;DHT22;8531;48.078;11.968;2024-01-30T02:06:30;0.10;99.90
16829;DHT22;8531;48.078;11.968;2024-01-30T02:08:56;0.20;99.90
16829;DHT22;8531;48.078;11.968;2024-01-30T02:11:22;0.20;99.90
16829;DHT22;8531;48.078;11.968;2024-01-30T02:13:49;0.20;99.90
16829;DHT22;8531;48.078;11.968;2024-01-30T02:16:15;0.20;99.90
16829;DHT22;8531;48.078;11.968;2024-01-30T02:18:42;0.10;99.90
16829;DHT22;8531;48.078;11.968;2024-01-30T02:21:11;0.10;99.90
16829;DHT22;8531;48.078;11.968;2024-01-30T02:23:38;0.10;99.90
16829;DHT22;8531;48.078;11.968;2024-01-30T02:26:05;0.10;99.90
16829;DHT22;8531;48.078;11.968;2024-01-30T02:28:30;0.10;99.90
16829;DHT22;8531;48.078;11.968;2024-01-30T02:30:56;0.10;99.90
16829;DHT22;8531;48.078;11.968;2024-01-30T02:33:22;0.10;99.90
16829;DHT22;8531;48.078;11.968;2024-01-30T02:35:48;0.10;99.90
16829;DHT22;8531;48.078;11.968;2024-01-30T02:38:14;0.10;99.90
16829;DHT22;8531;48.078;11.968;2024-01-30T02:40:40;0.00;99.90
16829;DHT22;8531;48.078;11.968;2024-01-30T02:43:06;0.00;99.90
16829;DHT22;8531;48.078;11.968;2024-01-30T02:45:31;0.10;99.90
16829;DHT22;8531;48.078;11.968;2024-01-30T02:47:57;0.10;99.90
16829;DHT22;8531;48.078;11.968;2024-01-30T02:50:23;0.10;99.90
16829;DHT22;8531;48.078;11.968;2024-01-30T02:52:48;0.00;99.90
16829;DHT22;8531;48.078;11.968;2024-01-30T02:55:14;0.10;99.90
16829;DHT22;8531;48.078;11.968;2024-01-30T02:57:42;0.00;99.90
16829;DHT22;8531;48.078;11.968;2024-01-30T03:00:08;0.10;99.90
16829;DHT22;8531;48.078;11.968;2024-01-30T03:02:35;0.00;99.90
16829;DHT22;8531;48.078;11.968;2024-01-30T03:05:01;0.00;99.90
16829;DHT22;8531;48.078;11.968;2024-01-30T03:07:27;0.00;99.90
16829;DHT22;8531;48.078;11.968;2024-01-30T03:09:52;0.00;99.90
16829;DHT22;8531;48.078;11.968;2024-01-30T03:12:21;0.00;99.90
16829;DHT22;8531;48.078;11.968;2024-01-30T03:14:46;0.00;99.90
16829;DHT22;8531;48.078;11.968;2024-01-30T03:17:12;0.00;99.90
16829;DHT22;8531;48.078;11.968;2024-01-30T03:19:38;0.10;99.90
16829;DHT22;8531;48.078;11.968;2024-01-30T03:22:04;0.10;99.90
16829;DHT22;8531;48.078;11.968;2024-01-30T03:24:29;0.10;99.90
16829;DHT22;8531;48.078;11.968;2024-01-30T03:26:55;0.00;99.90
16829;DHT22;8531;48.078;11.968;2024-01-30T03:29:20;0.00;99.90
16829;DHT22;8531;48.078;11.968;2024-01-30T03:31:46;0.00;99.90
16829;DHT22;8531;48.078;11.968;2024-01-30T03:34:12;-0.10;99.90
16829;DHT22;8531;48.078;11.968;2024-01-30T03:36:38;-0.10;99.90
16829;DHT22;8531;48.078;11.968;2024-01-30T03:39:03;-0.10;99.90
16829;DHT22;8531;48.078;11.968;2024-01-30T03:41:29;-0.10;99.90
16829;DHT22;8531;48.078;11.968;2024-01-30T03:43:54;-0.10;99.90
16829;DHT22;8531;48.078;11.968;2024-01-30T03:46:20;-0.10;99.90
16829;DHT22;8531;48.078;11.968;2024-01-30T03:48:46;-0.10;99.90
16829;DHT22;8531;48.078;11.968;2024-01-30T03:51:11;-0.10;99.90
16829;DHT22;8531;48.078;11.968;2024-01-30T03:53:40;-0.20;99.90
16829;DHT22;8531;48.078;11.968;2024-01-30T03:56:07;-0.10;99.90
16829;DHT22;8531;48.078;11.968;2024-01-30T03:58:32;-0.20;99.90
16829;DHT22;8531;48.078;11.968;2024-01-30T04:00:58;-0.20;99.90
16829;DHT22;8531;48.078;11.968;2024-01-30T04:03:23;-0.20;99.90
16829;DHT22;8531;48.078;11.968;2024-01-30T04:05:51;-0.10;99.90
16829;DHT22;8531;48.078;11.968;2024-01-30T04:08:16;-0.10;99.90
16829;DHT22;8531;48.078;11.968;2024-01-30T04:10:42;-0.10;99.90
16829;DHT22;8531;48.078;11.968;2024-01-30T04:13:08;-0.10;99.90
16829;DHT22;8531;48.078;11.968;2024-01-30T04:15:34;-0.10;99.90
16829;DHT22;8531;48.078;11.968;2024-01-30T04:18:00;0.00;99.90
16829;DHT22;8531;48.078;11.968;2024-01-30T04:20:26;-0.10;99.90
16829;DHT22;8531;48.078;11.968;2024-01-30T04:22:51;-0.10;99.90
16829;DHT22;8531;48.078;11.968;2024-01-30T04:25:17;-0.10;99.90
16829;DHT22;8531;48.078;11.968;2024-01-30T04:27:43;-0.10;99.90
16829;DHT22;8531;48.078;11.968;2024-01-30T04:30:09;-0.10;99.90
16829;DHT22;8531;48.078;11.968;2024-01-30T04:32:35;-0.10;99.90
16829;DHT22;8531;48.078;11.968;2024-01-30T04:35:01;-0.10;99.90
16829;DHT22;8531;48.078;11.968;2024-01-30T04:37:27;0.00;99.90
16829;DHT22;8531;48.078;11.968;2024-01-30T04:39:53;0.00;99.90
16829;DHT22;8531;48.078;11.968;2024-01-30T04:42:19;0.00;99.90
16829;DHT22;8531;48.078;11.968;2024-01-30T04:44:45;0.00;99.90
16829;DHT22;8531;48.078;11.968;2024-01-30T04:47:10;0.00;99.90
16829;DHT22;8531;48.078;11.968;2024-01-30T04:49:39;0.10;99.90
16829;DHT22;8531;48.078;11.968;2024-01-30T04:52:06;0.00;99.90
16829;DHT22;8531;48.078;11.968;2024-01-30T04:54:31;0.10;99.90
16829;DHT22;8531;48.078;11.968;2024-01-30T04:56:57;0.20;99.90
16829;DHT22;8531;48.078;11.968;2024-01-30T04:59:23;0.20;99.90
16829;DHT22;8531;48.078;11.968;2024-01-30T05:01:49;0.20;99.90
16829;DHT22;8531;48.078;11.968;2024-01-30T05:04:15;0.10;99.90
16829;DHT22;8531;48.078;11.968;2024-01-30T05:06:41;0.10;99.90
16829;DHT22;8531;48.078;11.968;2024-01-30T05:09:06;0.10;99.90
16829;DHT22;8531;48.078;11.968;2024-01-30T05:11:40;0.00;99.90
16829;DHT22;8531;48.078;11.968;2024-01-30T05:14:06;0.00;99.90
16829;DHT22;8531;48.078;11.968;2024-01-30T05:16:32;0.00;99.90
16829;DHT22;8531;48.078;11.968;2024-01-30T05:18:58;0.00;99.90
16829;DHT22;8531;48.078;11.968;2024-01-30T05:21:24;0.00;99.90
16829;DHT22;8531;48.078;11.968;2024-01-30T05:23:49;0.00;99.90
16829;DHT22;8531;48.078;11.968;2024-01-30T05:26:15;0.00;99.90
16829;DHT22;8531;48.078;11.968;2024-01-30T05:28:41;0.00;99.90
16829;DHT22;8531;48.078;11.968;2024-01-30T05:31:06;0.10;99.90
16829;DHT22;8531;48.078;11.968;2024-01-30T05:33:32;0.10;99.90
16829;DHT22;8531;48.078;11.968;2024-01-30T05:35:58;0.10;99.90
16829;DHT22;8531;48.078;11.968;2024-01-30T05:38:23;0.20;99.90
16829;DHT22;8531;48.078;11.968;2024-01-30T05:40:49;0.30;99.90
16829;DHT22;8531;48.078;11.968;2024-01-30T05:43:15;0.40;99.90
16829;DHT22;8531;48.078;11.968;2024-01-30T05:45:40;0.50;99.90
16829;DHT22;8531;48.078;11.968;2024-01-30T05:48:06;0.60;99.90
16829;DHT22;8531;48.078;11.968;2024-01-30T05:50:32;0.70;99.90
16829;DHT22;8531;48.078;11.968;2024-01-30T05:52:58;0.70;99.90
16829;DHT22;8531;48.078;11.968;2024-01-30T05:55:23;0.60;99.90
16829;DHT22;8531;48.078;11.968;2024-01-30T05:57:49;0.60;99.90
16829;DHT22;8531;48.078;11.968;2024-01-30T06:00:15;0.50;99.90
16829;DHT22;8531;48.078;11.968;2024-01-30T06:02:41;0.50;99.90
16829;DHT22;8531;48.078;11.968;2024-01-30T06:05:07;0.40;99.90
16829;DHT22;8531;48.078;11.968;2024-01-30T06:07:32;0.40;99.90
16829;DHT22;8531;48.078;11.968;2024-01-30T06:09:58;0.40;99.90
16829;DHT22;8531;48.078;11.968;2024-01-30T06:12:26;0.40;99.90
16829;DHT22;8531;48.078;11.968;2024-01-30T06:14:52;0.40;99.90
16829;DHT22;8531;48.078;11.968;2024-01-30T06:17:19;0.40;99.90
16829;DHT22;8531;48.078;11.968;2024-01-30T06:19:45;0.50;99.90
16829;DHT22;8531;48.078;11.968;2024-01-30T06:22:11;0.50;99.90
16829;DHT22;8531;48.078;11.968;2024-01-30T06:24:36;0.50;99.90
16829;DHT22;8531;48.078;11.968;2024-01-30T06:27:02;0.40;99.90
16829;DHT22;8531;48.078;11.968;2024-01-30T06:29:28;0.40;99.90
16829;DHT22;8531;48.078;11.968;2024-01-30T06:31:54;0.40;99.90
16829;DHT22;8531;48.078;11.968;2024-01-30T06:34:20;0.30;99.90
16829;DHT22;8531;48.078;11.968;2024-01-30T06:36:45;0.30;99.90
16829;DHT22;8531;48.078;11.968;2024-01-30T06:39:11;0.20;99.90
16829;DHT22;8531;48.078;11.968;2024-01-30T06:41:36;0.20;99.90
16829;DHT22;8531;48.078;11.968;2024-01-30T06:44:02;0.20;99.90
16829;DHT22;8531;48.078;11.968;2024-01-30T06:46:33;0.40;99.90
16829;DHT22;8531;48.078;11.968;2024-01-30T06:48:59;0.40;99.90
16829;DHT22;8531;48.078;11.968;2024-01-30T06:51:25;0.50;99.90
16829;DHT22;8531;48.078;11.968;2024-01-30T06:53:50;0.50;99.90
16829;DHT22;8531;48.078;11.968;2024-01-30T06:56:16;0.50;99.90
16829;DHT22;8531;48.078;11.968;2024-01-30T06:58:49;0.60;99.90
16829;DHT22;8531;48.078;11.968;2024-01-30T07:01:16;0.60;99.90
16829;DHT22;8531;48.078;11.968;2024-01-30T07:03:42;0.60;99.90
16829;DHT22;8531;48.078;11.968;2024-01-30T07:06:08;0.70;99.90
16829;DHT22;8531;48.078;11.968;2024-01-30T07:08:34;0.70;99.90
16829;DHT22;8531;48.078;11.968;2024-01-30T07:11:00;0.70;99.90
16829;DHT22;8531;48.078;11.968;2024-01-30T07:13:27;0.70;99.90
16829;DHT22;8531;48.078;11.968;2024-01-30T07:15:53;0.80;99.90
16829;DHT22;8531;48.078;11.968;2024-01-30T07:18:19;0.80;99.90
16829;DHT22;8531;48.078;11.968;2024-01-30T07:20:45;1.00;99.90
16829;DHT22;8531;48.078;11.968;2024-01-30T07:23:16;1.00;99.90
16829;DHT22;8531;48.078;11.968;2024-01-30T07:25:46;1.00;99.90
16829;DHT22;8531;48.078;11.968;2024-01-30T07:28:14;1.00;99.90
16829;DHT22;8531;48.078;11.968;2024-01-30T07:30:42;0.90;99.90
16829;DHT22;8531;48.078;11.968;2024-01-30T07:33:08;0.80;99.90
16829;DHT22;8531;48.078;11.968;2024-01-30T07:35:35;0.90;99.90
16829;DHT22;8531;48.078;11.968;2024-01-30T07:38:00;0.90;99.90
16829;DHT22;8531;48.078;11.968;2024-01-30T07:40:26;0.90;99.90
16829;DHT22;8531;48.078;11.968;2024-01-30T07:42:53;1.00;99.90
16829;DHT22;8531;48.078;11.968;2024-01-30T07:45:19;1.00;99.90
16829;DHT22;8531;48.078;11.968;2024-01-30T07:47:49;1.00;99.90
16829;DHT22;8531;48.078;11.968;2024-01-30T07:50:14;1.10;99.90
16829;DHT22;8531;48.078;11.968;2024-01-30T07:52:40;1.20;99.90
16829;DHT22;8531;48.078;11.968;2024-01-30T07:55:06;1.20;99.90
16829;DHT22;8531;48.078;11.968;2024-01-30T07:57:33;1.20;99.90
16829;DHT22;8531;48.078;11.968;2024-01-30T08:00:00;1.20;99.90
16829;DHT22;8531;48.078;11.968;2024-01-30T08:02:26;1.30;99.90
16829;DHT22;8531;48.078;11.968;2024-01-30T08:04:51;1.50;99.90
16829;DHT22;8531;48.078;11.968;2024-01-30T08:07:17;1.70;99.90
16829;DHT22;8531;48.078;11.968;2024-01-30T08:09:43;1.80;99.90
16829;DHT22;8531;48.078;11.968;2024-01-30T08:12:09;2.10;99.90
16829;DHT22;8531;48.078;11.968;2024-01-30T08:14:35;2.20;99.90
16829;DHT22;8531;48.078;11.968;2024-01-30T08:17:01;2.30;99.90
16829;DHT22;8531;48.078;11.968;2024-01-30T08:19:27;2.40;99.90
16829;DHT22;8531;48.078;11.968;2024-01-30T08:21:53;2.50;99.90
16829;DHT22;8531;48.078;11.968;2024-01-30T08:24:18;2.70;99.90
16829;DHT22;8531;48.078;11.968;2024-01-30T08:26:44;2.70;99.90
16829;DHT22;8531;48.078;11.968;2024-01-30T08:29:10;2.90;99.90
16829;DHT22;8531;48.078;11.968;2024-01-30T08:31:36;3.00;99.90
16829;DHT22;8531;48.078;11.968;2024-01-30T08:34:01;3.10;99.90
16829;DHT22;8531;48.078;11.968;2024-01-30T08:36:27;3.10;99.90
16829;DHT22;8531;48.078;11.968;2024-01-30T08:38:53;3.20;99.90
16829;DHT22;8531;48.078;11.968;2024-01-30T08:41:18;3.30;99.90
16829;DHT22;8531;48.078;11.968;2024-01-30T08:43:44;3.40;99.90
16829;DHT22;8531;48.078;11.968;2024-01-30T08:46:11;3.50;99.90
16829;DHT22;8531;48.078;11.968;2024-01-30T08:48:36;3.60;99.90
16829;DHT22;8531;48.078;11.968;2024-01-30T08:51:02;3.80;99.90
16829;DHT22;8531;48.078;11.968;2024-01-30T08:53:28;3.80;99.90
16829;DHT22;8531;48.078;11.968;2024-01-30T08:55:53;3.90;99.90
16829;DHT22;8531;48.078;11.968;2024-01-30T08:58:19;4.10;99.90
16829;DHT22;8531;48.078;11.968;2024-01-30T09:00:45;4.10;99.90
16829;DHT22;8531;48.078;11.968;2024-01-30T09:03:11;4.20;99.90
16829;DHT22;8531;48.078;11.968;2024-01-30T09:05:36;4.30;99.90
16829;DHT22;8531;48.078;11.968;2024-01-30T09:08:02;4.30;99.90
16829;DHT22;8531;48.078;11.968;2024-01-30T09:10:28;4.30;99.90
16829;DHT22;8531;48.078;11.968;2024-01-30T09:12:53;4.40;99.90
16829;DHT22;8531;48.078;11.968;2024-01-30T09:15:19;4.50;99.90
16829;DHT22;8531;48.078;11.968;2024-01-30T09:17:45;4.50;99.90
16829;DHT22;8531;48.078;11.968;2024-01-30T09:20:11;4.60;99.90
16829;DHT22;8531;48.078;11.968;2024-01-30T09:22:37;4.60;99.90
16829;DHT22;8531;48.078;11.968;2024-01-30T09:25:03;4.80;99.90
16829;DHT22;8531;48.078;11.968;2024-01-30T09:27:29;4.90;99.90
16829;DHT22;8531;48.078;11.968;2024-01-30T09:29:54;4.90;99.90
16829;DHT22;8531;48.078;11.968;2024-01-30T09:32:20;4.90;99.90
16829;DHT22;8531;48.078;11.968;2024-01-30T09:34:46;4.90;99.90
16829;DHT22;8531;48.078;11.968;2024-01-30T09:37:11;5.10;99.90
16829;DHT22;8531;48.078;11.968;2024-01-30T09:39:37;5.10;99.90
16829;DHT22;8531;48.078;11.968;2024-01-30T09:42:20;5.20;99.90
16829;DHT22;8531;48.078;11.968;2024-01-30T09:44:51;5.40;99.90
16829;DHT22;8531;48.078;11.968;2024-01-30T09:47:18;5.50;99.90
16829;DHT22;8531;48.078;11.968;2024-01-30T09:49:44;5.60;99.90
16829;DHT22;8531;48.078;11.968;2024-01-30T09:52:10;5.70;99.90
16829;DHT22;8531;48.078;11.968;2024-01-30T09:54:36;5.80;99.90
16829;DHT22;8531;48.078;11.968;2024-01-30T09:57:03;5.90;99.90
16829;DHT22;8531;48.078;11.968;2024-01-30T09:59:29;6.00;99.90
16829;DHT22;8531;48.078;11.968;2024-01-30T10:01:56;6.00;99.90
16829;DHT22;8531;48.078;11.968;2024-01-30T10:04:22;6.20;99.90
16829;DHT22;8531;48.078;11.968;2024-01-30T10:06:47;6.20;99.90
16829;DHT22;8531;48.078;11.968;2024-01-30T10:09:14;6.30;99.90
16829;DHT22;8531;48.078;11.968;2024-01-30T10:11:40;6.30;99.90
16829;DHT22;8531;48.078;11.968;2024-01-30T10:14:05;6.50;99.90
16829;DHT22;8531;48.078;11.968;2024-01-30T10:16:31;6.50;99.90
16829;DHT22;8531;48.078;11.968;2024-01-30T10:18:57;6.70;99.90
16829;DHT22;8531;48.078;11.968;2024-01-30T10:21:23;6.70;99.90
16829;DHT22;8531;48.078;11.968;2024-01-30T10:23:49;6.80;99.90
16829;DHT22;8531;48.078;11.968;2024-01-30T10:26:16;6.80;99.90
16829;DHT22;8531;48.078;11.968;2024-01-30T10:28:42;6.80;99.90
16829;DHT22;8531;48.078;11.968;2024-01-30T10:31:08;6.90;99.90
16829;DHT22;8531;48.078;11.968;2024-01-30T10:33:34;7.00;99.90
16829;DHT22;8531;48.078;11.968;2024-01-30T10:36:04;7.20;99.90
16829;DHT22;8531;48.078;11.968;2024-01-30T10:38:32;7.40;99.90
16829;DHT22;8531;48.078;11.968;2024-01-30T10:40:59;7.40;99.90
16829;DHT22;8531;48.078;11.968;2024-01-30T10:43:47;7.60;99.90
16829;DHT22;8531;48.078;11.968;2024-01-30T10:46:19;7.50;99.90
16829;DHT22;8531;48.078;11.968;2024-01-30T10:48:51;7.60;99.90
16829;DHT22;8531;48.078;11.968;2024-01-30T10:51:22;7.60;99.90
16829;DHT22;8531;48.078;11.968;2024-01-30T10:53:49;7.80;99.90
16829;DHT22;8531;48.078;11.968;2024-01-30T10:56:16;8.10;99.90
16829;DHT22;8531;48.078;11.968;2024-01-30T10:58:42;8.10;99.90
16829;DHT22;8531;48.078;11.968;2024-01-30T11:01:08;8.20;99.90
16829;DHT22;8531;48.078;11.968;2024-01-30T11:03:34;8.20;99.90
16829;DHT22;8531;48.078;11.968;2024-01-30T11:06:02;8.30;99.90
16829;DHT22;8531;48.078;11.968;2024-01-30T11:08:31;8.40;99.90
16829;DHT22;8531;48.078;11.968;2024-01-30T11:10:58;8.50;99.90
16829;DHT22;8531;48.078;11.968;2024-01-30T11:13:30;8.50;99.90
16829;DHT22;8531;48.078;11.968;2024-01-30T11:16:03;8.50;99.90
16829;DHT22;8531;48.078;11.968;2024-01-30T11:18:30;8.70;99.90
16829;DHT22;8531;48.078;11.968;2024-01-30T11:20:57;8.70;99.90
16829;DHT22;8531;48.078;11.968;2024-01-30T11:23:23;8.80;99.90
16829;DHT22;8531;48.078;11.968;2024-01-30T11:25:49;8.90;99.90
16829;DHT22;8531;48.078;11.968;2024-01-30T11:28:18;9.10;99.90
16829;DHT22;8531;48.078;11.968;2024-01-30T11:30:44;9.20;99.90
16829;DHT22;8531;48.078;11.968;2024-01-30T11:33:11;9.40;99.90
16829;DHT22;8531;48.078;11.968;2024-01-30T11:35:39;9.60;99.90
16829;DHT22;8531;48.078;11.968;2024-01-30T11:38:07;9.70;99.90
16829;DHT22;8531;48.078;11.968;2024-01-30T11:40:34;9.80;99.90
16829;DHT22;8531;48.078;11.968;2024-01-30T11:43:01;9.90;99.90
16829;DHT22;8531;48.078;11.968;2024-01-30T11:45:27;10.00;99.90
16829;DHT22;8531;48.078;11.968;2024-01-30T11:47:54;10.10;99.90
16829;DHT22;8531;48.078;11.968;2024-01-30T11:50:20;10.20;99.90
16829;DHT22;8531;48.078;11.968;2024-01-30T11:52:46;10.40;99.90
16829;DHT22;8531;48.078;11.968;2024-01-30T11:55:12;10.60;99.90
16829;DHT22;8531;48.078;11.968;2024-01-30T11:57:38;10.70;99.90
16829;DHT22;8531;48.078;11.968;2024-01-30T12:00:05;10.90;99.90
16829;DHT22;8531;48.078;11.968;2024-01-30T12:02:41;10.90;99.90
16829;DHT22;8531;48.078;11.968;2024-01-30T12:05:07;11.10;99.90
16829;DHT22;8531;48.078;11.968;2024-01-30T12:07:33;11.10;99.90
16829;DHT22;8531;48.078;11.968;2024-01-30T12:10:00;11.10;99.90
16829;DHT22;8531;48.078;11.968;2024-01-30T12:12:26;11.20;99.90
16829;DHT22;8531;48.078;11.968;2024-01-30T12:14:53;11.30;99.90
16829;DHT22;8531;48.078;11.968;2024-01-30T12:17:31;11.30;99.90
16829;DHT22;8531;48.078;11.968;2024-01-30T12:20:23;11.50;99.90
16829;DHT22;8531;48.078;11.968;2024-01-30T12:22:49;11.60;99.90
16829;DHT22;8531;48.078;11.968;2024-01-30T12:25:17;11.60;99.90
16829;DHT22;8531;48.078;11.968;2024-01-30T12:27:44;11.60;99.90
16829;DHT22;8531;48.078;11.968;2024-01-30T12:30:12;11.60;99.90
16829;DHT22;8531;48.078;11.968;2024-01-30T12:32:45;11.70;99.90
16829;DHT22;8531;48.078;11.968;2024-01-30T12:35:13;11.60;99.90
16829;DHT22;8531;48.078;11.968;2024-01-30T12:37:39;11.50;99.90
16829;DHT22;8531;48.078;11.968;2024-01-30T12:40:08;11.50;99.90
16829;DHT22;8531;48.078;11.968;2024-01-30T12:42:35;11.60;99.90
16829;DHT22;8531;48.078;11.968;2024-01-30T12:45:04;11.50;99.90
16829;DHT22;8531;48.078;11.968;2024-01-30T12:47:31;11.50;99.90
16829;DHT22;8531;48.078;11.968;2024-01-30T12:49:57;11.40;99.90
16829;DHT22;8531;48.078;11.968;2024-01-30T12:52:23;11.40;99.90
16829;DHT22;8531;48.078;11.968;2024-01-30T12:54:49;11.30;99.90
16829;DHT22;8531;48.078;11.968;2024-01-30T12:57:15;11.30;99.90
16829;DHT22;8531;48.078;11.968;2024-01-30T12:59:42;11.20;99.90
16829;DHT22;8531;48.078;11.968;2024-01-30T13:02:08;11.30;99.90
16829;DHT22;8531;48.078;11.968;2024-01-30T13:04:34;11.30;99.90
16829;DHT22;8531;48.078;11.968;2024-01-30T13:07:00;11.30;99.90
16829;DHT22;8531;48.078;11.968;2024-01-30T13:09:26;11.30;99.90
16829;DHT22;8531;48.078;11.968;2024-01-30T13:11:52;11.40;99.90
16829;DHT22;8531;48.078;11.968;2024-01-30T13:14:19;11.40;99.90
16829;DHT22;8531;48.078;11.968;2024-01-30T13:16:45;11.40;99.90
16829;DHT22;8531;48.078;11.968;2024-01-30T13:19:12;11.40;99.90
16829;DHT22;8531;48.078;11.968;2024-01-30T13:21:39;11.40;99.90
16829;DHT22;8531;48.078;11.968;2024-01-30T13:24:05;11.40;99.90
16829;DHT22;8531;48.078;11.968;2024-01-30T13:26:32;11.50;99.90
16829;DHT22;8531;48.078;11.968;2024-01-30T13:28:58;11.40;99.90
16829;DHT22;8531;48.078;11.968;2024-01-30T13:31:24;11.40;99.90
16829;DHT22;8531;48.078;11.968;2024-01-30T13:33:50;11.40;99.90
16829;DHT22;8531;48.078;11.968;2024-01-30T13:36:16;11.40;99.90
16829;DHT22;8531;48.078;11.968;2024-01-30T13:38:42;11.40;99.90
16829;DHT22;8531;48.078;11.968;2024-01-30T13:41:07;11.30;99.90
16829;DHT22;8531;48.078;11.968;2024-01-30T13:43:33;11.30;99.90
16829;DHT22;8531;48.078;11.968;2024-01-30T13:45:59;11.30;99.90
16829;DHT22;8531;48.078;11.968;2024-01-30T13:48:25;11.30;99.90
16829;DHT22;8531;48.078;11.968;2024-01-30T13:50:51;11.30;99.90
16829;DHT22;8531;48.078;11.968;2024-01-30T13:53:16;11.30;99.90
16829;DHT22;8531;48.078;11.968;2024-01-30T13:55:43;11.30;99.90
16829;DHT22;8531;48.078;11.968;2024-01-30T13:58:08;11.30;99.90
16829;DHT22;8531;48.078;11.968;2024-01-30T14:00:34;11.30;99.90
16829;DHT22;8531;48.078;11.968;2024-01-30T14:03:00;11.30;99.90
16829;DHT22;8531;48.078;11.968;2024-01-30T14:05:26;11.30;99.90
16829;DHT22;8531;48.078;11.968;2024-01-30T14:07:53;11.30;99.90
16829;DHT22;8531;48.078;11.968;2024-01-30T14:10:19;11.30;99.90
16829;DHT22;8531;48.078;11.968;2024-01-30T14:12:46;11.30;99.90
16829;DHT22;8531;48.078;11.968;2024-01-30T14:15:13;11.30;99.90
16829;DHT22;8531;48.078;11.968;2024-01-30T14:17:40;11.40;99.90
16829;DHT22;8531;48.078;11.968;2024-01-30T14:20:06;11.40;99.90
16829;DHT22;8531;48.078;11.968;2024-01-30T14:22:33;11.30;99.90
16829;DHT22;8531;48.078;11.968;2024-01-30T14:25:02;11.30;99.90
16829;DHT22;8531;48.078;11.968;2024-01-30T14:27:31;11.30;99.90
16829;DHT22;8531;48.078;11.968;2024-01-30T14:29:58;11.30;99.90
16829;DHT22;8531;48.078;11.968;2024-01-30T14:32:24;11.20;99.90
16829;DHT22;8531;48.078;11.968;2024-01-30T14:34:51;11.20;99.90
16829;DHT22;8531;48.078;11.968;2024-01-30T14:37:18;11.20;99.90
16829;DHT22;8531;48.078;11.968;2024-01-30T14:39:44;11.20;99.90
16829;DHT22;8531;48.078;11.968;2024-01-30T14:42:10;11.20;99.90
16829;DHT22;8531;48.078;11.968;2024-01-30T14:44:35;11.10;99.90
16829;DHT22;8531;48.078;11.968;2024-01-30T14:47:01;11.10;99.90
16829;DHT22;8531;48.078;11.968;2024-01-30T14:49:27;11.10;99.90
16829;DHT22;8531;48.078;11.968;2024-01-30T14:51:53;11.10;99.90
16829;DHT22;8531;48.078;11.968;2024-01-30T14:54:19;11.10;99.90
16829;DHT22;8531;48.078;11.968;2024-01-30T14:56:45;11.00;99.90
16829;DHT22;8531;48.078;11.968;2024-01-30T14:59:11;11.00;99.90
16829;DHT22;8531;48.078;11.968;2024-01-30T15:01:37;11.00;99.90
16829;DHT22;8531;48.078;11.968;2024-01-30T15:04:02;10.90;99.90
16829;DHT22;8531;48.078;11.968;2024-01-30T15:06:29;10.90;99.90
16829;DHT22;8531;48.078;11.968;2024-01-30T15:08:54;10.90;99.90
16829;DHT22;8531;48.078;11.968;2024-01-30T15:11:20;10.90;99.90
16829;DHT22;8531;48.078;11.968;2024-01-30T15:13:46;10.90;99.90
16829;DHT22;8531;48.078;11.968;2024-01-30T15:16:12;10.80;99.90
16829;DHT22;8531;48.078;11.968;2024-01-30T15:18:38;10.80;99.90
16829;DHT22;8531;48.078;11.968;2024-01-30T15:21:04;10.80;99.90
16829;DHT22;8531;48.078;11.968;2024-01-30T15:23:29;10.70;99.90
16829;DHT22;8531;48.078;11.968;2024-01-30T15:25:55;10.70;99.90
16829;DHT22;8531;48.078;11.968;2024-01-30T15:28:35;10.60;99.90
16829;DHT22;8531;48.078;11.968;2024-01-30T15:31:02;10.60;99.90
16829;DHT22;8531;48.078;11.968;2024-01-30T15:33:28;10.60;99.90
16829;DHT22;8531;48.078;11.968;2024-01-30T15:35:53;10.50;99.90
16829;DHT22;8531;48.078;11.968;2024-01-30T15:38:20;10.50;99.90